Time;durP1;ratioP1;P1;durP2;ratioP2;P2;SDS_P1;SDS_P2;PMS_P1;PMS_P2;Temp;Humidity;BMP_temperature;BMP_pressure;BME280_temperature;BME280_humidity;BME280_pressure;Samples;Min_cycle;Max_cycle;Signal;HPM_P1;HPM_P2
2022/05/03 00:01:58;;;;;;;5.60;3.58;;;;;;;16.52;54.57;101028.28;4924434;29;20056;-86
2022/05/03 00:04:50;;;;;;;5.43;4.55;;;;;;;16.51;54.57;101026.63;4908475;29;20054;-86
2022/05/03 00:07:46;;;;;;;4.45;4.05;;;;;;;16.07;54.83;100949.16;4909764;29;20151;-86
2022/05/03 00:10:16;;;;;;;4.95;4.45;;;;;;;16.38;54.57;101009.19;4896173;29;20052;-87
2022/05/03 00:12:55;;;;;;;4.95;3.95;;;;;;;16.38;55.02;101001.16;4909083;29;20055;-86
2022/05/03 00:15:24;;;;;;;4.68;3.95;;;;;;;16.16;54.28;100961.56;4909242;29;20059;-87
2022/05/03 00:17:53;;;;;;;5.40;3.80;;;;;;;16.08;54.72;100962.38;4910104;29;20418;-86
2022/05/03 00:20:20;;;;;;;5.38;4.13;;;;;;;15.91;54.90;100923.19;4908521;29;20083;-86
2022/05/03 00:22:47;;;;;;;5.10;4.60;;;;;;;15.21;55.50;100821.75;4924474;29;20064;-86
2022/05/03 00:25:15;;;;;;;4.15;3.75;;;;;;;16.35;54.91;101003.31;4890946;29;20523;-85
2022/05/03 00:27:43;;;;;;;5.05;4.53;;;;;;;16.16;55.25;100977.63;4872111;29;20068;-84
2022/05/03 00:30:10;;;;;;;4.72;4.25;;;;;;;15.97;55.75;100952.84;4886683;29;20045;-85
2022/05/03 00:32:39;;;;;;;5.88;5.07;;;;;;;16.44;54.61;101011.19;4889705;29;20510;-85
2022/05/03 00:35:09;;;;;;;4.97;4.40;;;;;;;16.41;55.17;101003.50;4894700;29;20064;-85
2022/05/03 00:37:36;;;;;;;5.18;4.68;;;;;;;16.42;55.50;101018.56;4894340;29;20064;-85
2022/05/03 00:40:05;;;;;;;4.90;4.28;;;;;;;16.33;55.58;100998.09;4908808;29;20067;-86
2022/05/03 00:43:08;;;;;;;5.05;4.65;;;;;;;16.42;55.25;101010.50;4908763;29;20052;-85
2022/05/03 00:45:46;;;;;;;5.13;4.40;;;;;;;16.09;55.25;100948.00;4908320;29;20082;-85
2022/05/03 00:48:47;;;;;;;5.40;4.35;;;;;;;16.43;55.48;101003.31;4892553;29;20064;-86
2022/05/03 00:51:21;;;;;;;4.40;4.03;;;;;;;16.41;55.79;101006.16;4908552;29;20064;-85
2022/05/03 00:54:04;;;;;;;5.20;4.05;;;;;;;16.03;55.64;100938.78;4892859;29;20407;-86
2022/05/03 00:56:37;;;;;;;5.05;4.55;;;;;;;16.49;55.67;101007.19;4893312;29;20503;-85
2022/05/03 00:59:25;;;;;;;7.40;4.35;;;;;;;16.47;55.52;101003.84;4924007;29;20052;-87
2022/05/03 01:02:06;;;;;;;4.55;4.15;;;;;;;16.43;55.48;100998.81;4930029;29;20053;-85
2022/05/03 01:04:56;;;;;;;4.95;4.45;;;;;;;15.97;55.86;100928.75;4932137;29;20545;-86
2022/05/03 01:07:27;;;;;;;4.88;4.45;;;;;;;15.97;55.60;100936.78;4912726;29;20135;-87
2022/05/03 01:09:57;;;;;;;3.92;3.63;;;;;;;16.40;55.64;100998.28;4911372;29;20055;-85
2022/05/03 01:12:58;;;;;;;6.32;4.97;;;;;;;16.31;55.84;100989.41;4927175;29;20060;-84
2022/05/03 01:15:38;;;;;;;4.28;3.97;;;;;;;16.23;55.21;100973.31;4926659;29;20075;-85
2022/05/03 01:18:24;;;;;;;7.45;4.75;;;;;;;16.22;55.29;100972.47;4926800;29;20489;-87
2022/05/03 01:20:53;;;;;;;5.05;4.38;;;;;;;15.99;55.24;100934.75;4926925;29;20052;-85
2022/05/03 01:23:32;;;;;;;5.85;4.40;;;;;;;16.33;55.44;100987.38;4926232;29;20056;-85
2022/05/03 01:26:10;;;;;;;4.35;4.05;;;;;;;16.31;55.49;100984.06;4889211;29;20662;-86
2022/05/03 01:28:54;;;;;;;5.63;4.22;;;;;;;16.28;56.29;100984.34;4889287;29;20144;-86
2022/05/03 01:31:23;;;;;;;5.05;4.63;;;;;;;16.12;55.89;100965.59;4895967;29;20446;-86
2022/05/03 01:33:50;;;;;;;4.43;4.03;;;;;;;16.26;55.98;100986.34;4907746;29;20063;-85
2022/05/03 01:36:27;;;;;;;6.93;4.60;;;;;;;16.17;55.72;100982.00;4892138;29;20060;-85
2022/05/03 01:39:31;;;;;;;4.72;4.28;;;;;;;16.29;55.72;100986.06;4893217;29;20055;-86
2022/05/03 01:42:07;;;;;;;6.00;4.13;;;;;;;15.86;56.54;100929.03;4893268;29;20053;-86
2022/05/03 01:44:58;;;;;;;6.60;4.60;;;;;;;16.20;56.30;100992.38;4891161;29;20193;-85
2022/05/03 01:47:52;;;;;;;4.73;3.90;;;;;;;16.12;56.45;100984.34;4884976;29;20059;-86
2022/05/03 01:50:41;;;;;;;4.68;4.05;;;;;;;16.07;56.25;100992.00;4892610;29;20052;-85
2022/05/03 01:53:15;;;;;;;4.90;4.15;;;;;;;16.01;56.85;100988.16;4891678;29;20371;-85
2022/05/03 01:55:45;;;;;;;5.10;4.57;;;;;;;16.04;56.27;101003.88;4907345;29;20056;-86
2022/05/03 01:58:45;;;;;;;4.95;4.38;;;;;;;16.04;56.61;100993.16;4915165;29;20180;-85
2022/05/03 02:01:50;;;;;;;4.97;4.47;;;;;;;14.63;57.09;100778.69;4910353;29;20176;-86
2022/05/03 02:04:39;;;;;;;6.47;4.45;;;;;;;15.92;57.29;101000.69;4907458;29;20052;-86
2022/05/03 02:07:30;;;;;;;5.05;4.55;;;;;;;15.46;56.73;100924.31;4926078;29;20048;-85
2022/05/03 02:10:10;;;;;;;5.70;4.55;;;;;;;15.79;57.42;100992.25;4910445;29;20412;-86
2022/05/03 02:12:41;;;;;;;5.25;4.78;;;;;;;15.64;56.96;100975.09;4911674;29;20396;-85
2022/05/03 02:15:11;;;;;;;5.22;4.50;;;;;;;15.79;57.47;101000.28;4910528;29;20418;-85
2022/05/03 02:17:49;;;;;;;6.13;4.82;;;;;;;15.76;57.75;101000.59;4925982;29;20052;-86
2022/05/03 02:20:54;;;;;;;6.00;4.53;;;;;;;15.73;57.70;101006.28;4910525;29;20082;-85
2022/05/03 02:23:39;;;;;;;6.03;5.25;;;;;;;15.74;57.62;101005.28;4925667;29;20052;-86
2022/05/03 02:26:18;;;;;;;7.30;5.10;;;;;;;14.92;57.52;100874.56;4888002;29;20064;-85
2022/05/03 02:28:57;;;;;;;5.60;5.10;;;;;;;15.45;57.93;100962.78;4888582;29;20060;-85
2022/05/03 02:31:32;;;;;;;6.13;5.63;;;;;;;15.35;57.58;100936.16;4880873;29;20080;-86
2022/05/03 02:34:31;;;;;;;6.13;5.45;;;;;;;15.59;57.81;101003.16;4906809;29;20055;-86
2022/05/03 02:37:25;;;;;;;6.10;5.50;;;;;;;15.57;57.88;101007.84;4859547;29;20060;-86
2022/05/03 02:39:57;;;;;;;7.20;5.70;;;;;;;15.52;57.77;101010.16;4867147;29;20052;-86
2022/05/03 02:42:25;;;;;;;6.15;5.55;;;;;;;15.38;57.99;100992.84;4891035;29;20056;-86
2022/05/03 02:44:56;;;;;;;5.60;5.15;;;;;;;15.07;58.24;100968.44;4892683;29;20064;-86
2022/05/03 02:47:34;;;;;;;6.07;5.45;;;;;;;15.04;58.26;100936.63;4893735;29;20045;-86
2022/05/03 02:50:05;;;;;;;5.93;5.32;;;;;;;14.64;58.50;100876.59;4897330;29;20060;-86
2022/05/03 02:52:35;;;;;;;6.63;6.07;;;;;;;14.68;59.53;100934.03;4898882;29;20057;-85
2022/05/03 02:55:20;;;;;;;7.63;5.68;;;;;;;15.15;58.93;101000.56;4922184;29;20534;-86
2022/05/03 02:58:23;;;;;;;6.65;5.15;;;;;;;15.12;59.56;101008.91;4917043;28;20044;-86
2022/05/03 03:01:50;;;;;;;5.53;4.95;;;;;;;14.83;59.18;100936.16;4933672;29;20059;-86
2022/05/03 03:04:35;;;;;;;6.47;5.72;;;;;;;15.05;59.92;100996.28;4905729;29;20056;-85
2022/05/03 03:07:03;;;;;;;6.00;5.40;;;;;;;14.63;59.67;100928.31;4925742;29;20265;-86
2022/05/03 03:09:51;;;;;;;8.18;6.07;;;;;;;13.93;59.85;100807.19;4925976;29;20061;-86
2022/05/03 03:12:22;;;;;;;6.00;5.25;;;;;;;15.09;60.15;100990.47;4911153;29;20710;-84
2022/05/03 03:14:59;;;;;;;5.57;5.07;;;;;;;15.00;59.98;100970.06;4926043;29;20059;-85
2022/05/03 03:17:28;;;;;;;8.25;6.15;;;;;;;14.57;60.43;100904.09;4909168;29;20214;-85
2022/05/03 03:20:10;;;;;;;6.28;5.45;;;;;;;14.58;60.47;100909.25;4925160;29;20112;-85
2022/05/03 03:22:42;;;;;;;8.80;5.82;;;;;;;14.39;59.86;100880.84;4909182;29;20052;-85
2022/05/03 03:25:13;;;;;;;6.57;5.88;;;;;;;14.55;60.61;100901.56;4924882;29;20380;-85
2022/05/03 03:27:43;;;;;;;5.82;5.32;;;;;;;14.99;60.33;100968.34;4910658;29;20059;-86
2022/05/03 03:30:12;;;;;;;7.38;5.10;;;;;;;13.60;60.25;100742.88;4924704;29;20455;-86
2022/05/03 03:32:42;;;;;;;6.05;5.45;;;;;;;15.05;60.17;100970.41;4907053;29;20495;-86
2022/05/03 03:35:12;;;;;;;6.85;5.32;;;;;;;15.20;60.30;100989.41;4891746;29;20067;-86
2022/05/03 03:37:45;;;;;;;6.88;5.20;;;;;;;15.24;60.44;100995.25;4890445;29;20422;-86
2022/05/03 03:40:14;;;;;;;8.07;6.00;;;;;;;15.30;60.07;100989.28;4891627;29;20059;-86
2022/05/03 03:42:42;;;;;;;8.20;6.00;;;;;;;15.15;59.83;100968.47;4891533;29;20060;-86
2022/05/03 03:45:11;;;;;;;6.85;6.25;;;;;;;15.28;59.39;100996.63;4905701;29;20056;-86
2022/05/03 03:47:40;;;;;;;6.30;5.57;;;;;;;15.04;58.98;100963.38;4890831;29;20064;-86
2022/05/03 03:50:08;;;;;;;6.20;5.60;;;;;;;14.67;58.74;100897.63;4891519;29;20060;-86
2022/05/03 03:52:38;;;;;;;6.45;5.85;;;;;;;15.19;58.81;100998.41;4906031;29;20055;-86
2022/05/03 03:55:05;;;;;;;8.98;5.90;;;;;;;15.13;59.54;100999.88;4890258;29;20049;-86
2022/05/03 03:57:35;;;;;;;8.07;5.93;;;;;;;15.07;59.73;101000.53;4893424;29;20111;-85
2022/05/03 04:00:04;;;;;;;6.43;5.75;;;;;;;15.01;59.96;101001.13;4908921;29;20103;-85
2022/05/03 04:02:31;;;;;;;7.13;5.80;;;;;;;14.85;59.77;100980.44;4908621;29;20381;-86
2022/05/03 04:05:01;;;;;;;6.88;5.53;;;;;;;14.63;59.95;100954.22;4924387;29;20713;-85
2022/05/03 04:07:27;;;;;;;8.40;5.85;;;;;;;14.49;60.15;100926.16;4910387;29;20063;-83
2022/05/03 04:09:54;;;;;;;8.57;6.20;;;;;;;14.69;59.68;100951.78;4912635;29;20056;-85
2022/05/03 04:12:21;;;;;;;8.85;6.13;;;;;;;14.56;60.18;100937.94;4912582;29;20047;-84
2022/05/03 04:14:48;;;;;;;6.60;5.95;;;;;;;15.02;60.66;101021.50;4914092;29;20048;-85
2022/05/03 04:17:15;;;;;;;9.40;5.53;;;;;;;14.84;60.92;100999.31;4913560;29;20059;-85
2022/05/03 04:19:42;;;;;;;9.13;5.60;;;;;;;14.02;61.05;100865.00;4912472;29;20080;-86
2022/05/03 04:22:37;;;;;;;6.78;5.70;;;;;;;14.93;61.03;101007.25;4912178;29;20048;-86
2022/05/03 04:25:05;;;;;;;8.10;5.65;;;;;;;14.91;60.59;100989.69;4899524;29;20056;-86
2022/05/03 04:27:32;;;;;;;10.63;6.00;;;;;;;15.12;60.72;101030.31;4894441;29;20053;-85
2022/05/03 04:30:01;;;;;;;6.93;5.57;;;;;;;14.91;60.10;100965.63;4893426;29;20518;-85
2022/05/03 04:32:30;;;;;;;6.82;5.63;;;;;;;15.22;60.88;101024.00;4893752;29;20139;-86
2022/05/03 04:34:57;;;;;;;6.25;5.70;;;;;;;15.14;61.25;101017.59;4893363;29;20060;-85
2022/05/03 04:37:24;;;;;;;6.90;5.60;;;;;;;15.14;61.75;101017.59;4893237;29;20061;-86
2022/05/03 04:39:51;;;;;;;6.70;5.93;;;;;;;15.00;61.63;101004.81;4894479;29;20068;-85
2022/05/03 04:42:19;;;;;;;8.43;6.03;;;;;;;14.86;61.63;100975.97;4892455;29;20056;-86
2022/05/03 04:44:45;;;;;;;6.65;5.95;;;;;;;15.05;61.84;100999.81;4892593;29;20301;-85
2022/05/03 04:47:12;;;;;;;8.90;5.63;;;;;;;15.27;61.57;101027.06;4901165;29;20049;-85
2022/05/03 04:49:39;;;;;;;7.07;6.28;;;;;;;15.30;61.69;101030.25;4908551;29;20060;-86
2022/05/03 04:52:06;;;;;;;8.43;6.03;;;;;;;15.15;62.05;101005.91;4927539;29;20502;-86
2022/05/03 04:54:35;;;;;;;6.43;5.75;;;;;;;15.22;62.27;101011.47;4912851;29;20282;-84
2022/05/03 04:57:05;;;;;;;10.63;5.75;;;;;;;15.31;62.57;101020.38;4903469;29;20060;-85
2022/05/03 04:59:32;;;;;;;7.47;6.35;;;;;;;14.75;62.90;100927.06;4890745;29;20059;-86
2022/05/03 05:01:59;;;;;;;8.48;6.50;;;;;;;15.30;62.39;101016.03;4906782;29;20444;-86
2022/05/03 05:04:26;;;;;;;8.05;7.28;;;;;;;14.59;62.05;100892.25;4906675;29;20571;-86
2022/05/03 05:06:53;;;;;;;9.20;6.85;;;;;;;15.49;62.06;101042.59;4891262;29;20056;-85
2022/05/03 05:09:20;;;;;;;8.30;6.55;;;;;;;15.51;62.21;101029.03;4891128;29;20522;-85
2022/05/03 05:11:49;;;;;;;9.45;6.63;;;;;;;15.52;62.39;101030.72;4906639;29;20339;-86
2022/05/03 05:14:19;;;;;;;7.13;6.35;;;;;;;15.13;61.84;100973.13;4906924;29;20092;-86
2022/05/03 05:16:48;;;;;;;10.48;6.32;;;;;;;15.57;62.13;101037.28;4906951;29;20048;-85
2022/05/03 05:19:16;;;;;;;9.43;6.72;;;;;;;15.60;62.49;101044.97;4905891;29;20204;-86
2022/05/03 05:21:42;;;;;;;7.57;6.88;;;;;;;15.25;62.27;100975.56;4909375;29;20060;-86
2022/05/03 05:24:11;;;;;;;7.90;6.78;;;;;;;15.58;61.76;101020.22;4905154;29;20454;-86
2022/05/03 05:26:39;;;;;;;9.73;6.35;;;;;;;15.43;61.87;100981.66;4894109;29;20084;-85
2022/05/03 05:29:06;;;;;;;11.60;7.50;;;;;;;15.85;61.09;101046.97;4886851;29;20060;-86
2022/05/03 05:31:34;;;;;;;7.38;6.30;;;;;;;15.83;60.65;101032.94;4901993;29;20611;-85
2022/05/03 05:34:02;;;;;;;9.85;6.95;;;;;;;15.52;61.20;100991.41;4890606;29;20064;-86
2022/05/03 05:36:28;;;;;;;7.22;6.38;;;;;;;16.02;59.92;101059.47;4890401;29;20072;-86
2022/05/03 05:38:55;;;;;;;10.63;6.55;;;;;;;16.08;59.38;101056.13;4892200;29;20547;-84
2022/05/03 05:41:22;;;;;;;7.07;6.32;;;;;;;15.95;59.48;101026.28;4895524;29;20076;-85
2022/05/03 05:43:49;;;;;;;8.02;6.82;;;;;;;16.23;59.07;101067.06;4907373;29;20090;-85
2022/05/03 05:46:16;;;;;;;12.60;7.05;;;;;;;15.55;59.04;100945.59;4912797;29;20066;-85
2022/05/03 05:48:43;;;;;;;7.13;6.43;;;;;;;16.19;58.88;101028.19;4924489;29;20652;-85
2022/05/03 05:51:09;;;;;;;7.63;6.70;;;;;;;16.17;58.13;101024.88;4910059;29;20052;-86
2022/05/03 05:53:36;;;;;;;6.72;6.13;;;;;;;16.36;58.49;101059.41;4909383;29;20059;-85
2022/05/03 05:56:04;;;;;;;8.98;6.05;;;;;;;16.08;58.58;100996.38;4892261;29;20056;-84
2022/05/03 05:58:31;;;;;;;10.68;6.93;;;;;;;16.49;58.60;101055.44;4891297;29;20052;-84
2022/05/03 06:00:58;;;;;;;7.63;6.05;;;;;;;15.83;57.58;100939.25;4893936;29;20048;-85
2022/05/03 06:03:27;;;;;;;6.22;5.63;;;;;;;16.65;56.63;101050.94;4906635;29;20084;-85
2022/05/03 06:05:56;;;;;;;10.70;6.00;;;;;;;16.75;55.47;101056.16;4892351;29;20331;-84
2022/05/03 06:08:24;;;;;;;8.70;5.65;;;;;;;16.85;55.16;101064.91;4915697;29;20048;-85
2022/05/03 06:10:51;;;;;;;5.95;5.45;;;;;;;16.93;54.64;101064.06;4917179;29;20144;-85
2022/05/03 06:13:19;;;;;;;6.07;5.60;;;;;;;17.03;54.40;101061.22;4915634;29;20173;-85
2022/05/03 06:15:46;;;;;;;7.00;6.30;;;;;;;16.92;53.78;101034.72;4892711;29;20137;-85
2022/05/03 06:18:13;;;;;;;5.75;5.15;;;;;;;16.35;54.31;100947.88;4892131;29;20139;-84
2022/05/03 06:20:39;;;;;;;6.40;5.80;;;;;;;16.63;53.21;100971.69;4892838;29;20499;-85
2022/05/03 06:23:12;;;;;;;7.03;5.97;;;;;;;17.27;53.69;101076.47;4893045;29;20513;-84
2022/05/03 06:25:38;;;;;;;7.20;5.40;;;;;;;17.28;53.37;101079.00;4907366;29;20060;-85
2022/05/03 06:28:05;;;;;;;7.28;5.53;;;;;;;17.37;53.15;101081.66;4927217;29;20243;-86
2022/05/03 06:30:32;;;;;;;6.93;6.25;;;;;;;17.20;53.28;101037.91;4948493;29;20044;-84
2022/05/03 06:32:59;;;;;;;6.20;5.65;;;;;;;17.00;52.99;101007.91;4892839;29;20060;-83
2022/05/03 06:35:28;;;;;;;6.78;5.78;;;;;;;17.45;53.40;101073.59;4909133;29;20060;-85
2022/05/03 06:37:55;;;;;;;12.15;6.45;;;;;;;17.49;53.84;101086.50;4891075;29;20076;-85
2022/05/03 06:40:22;;;;;;;8.07;6.03;;;;;;;17.36;53.27;101053.16;4906965;29;20052;-85
2022/05/03 06:42:49;;;;;;;9.60;6.20;;;;;;;17.37;52.67;101046.78;4919445;29;20550;-84
2022/05/03 06:45:17;;;;;;;9.73;6.50;;;;;;;17.44;52.83;101069.25;4894995;29;20048;-86
2022/05/03 06:47:45;;;;;;;7.13;5.93;;;;;;;17.54;52.99;101069.06;4891102;29;20503;-85
2022/05/03 06:50:12;;;;;;;6.13;5.57;;;;;;;17.68;53.02;101084.47;4888599;29;20104;-85
2022/05/03 06:52:39;;;;;;;7.72;6.93;;;;;;;17.41;52.52;101015.91;4898812;29;20120;-85
2022/05/03 06:55:06;;;;;;;8.38;7.20;;;;;;;17.87;51.19;101078.75;4887852;29;20107;-85
2022/05/03 06:57:33;;;;;;;9.82;7.20;;;;;;;17.57;51.56;101049.91;4896402;29;20423;-84
2022/05/03 07:00:02;;;;;;;7.40;6.68;;;;;;;17.75;51.40;101063.97;4908335;29;20222;-85
2022/05/03 07:02:31;;;;;;;7.10;6.43;;;;;;;17.58;51.43;101041.69;4891849;29;20378;-84
2022/05/03 07:05:03;;;;;;;16.83;8.23;;;;;;;17.87;50.75;101100.22;4891567;29;20447;-85
2022/05/03 07:07:30;;;;;;;9.05;6.13;;;;;;;17.84;51.01;101080.91;4891826;29;20522;-85
2022/05/03 07:09:59;;;;;;;12.77;7.60;;;;;;;17.84;50.70;101056.75;4891710;29;20173;-85
2022/05/03 07:12:27;;;;;;;7.60;6.80;;;;;;;17.28;50.27;100971.66;4906589;29;20084;-85
2022/05/03 07:15:01;;;;;;;8.35;7.50;;;;;;;17.33;50.44;100981.88;4903309;29;20049;-86
2022/05/03 07:22:59;;;;;;;7.97;7.28;;;;;;;18.21;50.44;101095.59;4875006;29;20082;-85
2022/05/03 07:25:26;;;;;;;8.30;7.50;;;;;;;17.66;50.42;101005.94;4886404;29;20040;-87
2022/05/03 07:27:53;;;;;;;7.53;6.72;;;;;;;17.14;50.88;100913.34;4913610;29;20058;-85
2022/05/03 07:30:20;;;;;;;8.10;7.22;;;;;;;18.10;50.63;101057.31;4907019;29;20359;-85
2022/05/03 07:32:47;;;;;;;8.05;7.25;;;;;;;17.29;50.04;100903.56;4895007;29;20083;-82
2022/05/03 07:35:15;;;;;;;8.70;7.30;;;;;;;18.40;50.42;101095.16;4890980;29;20053;-85
2022/05/03 07:37:42;;;;;;;7.97;7.18;;;;;;;18.38;50.05;101074.84;4891705;29;20048;-85
2022/05/03 07:40:10;;;;;;;7.25;6.55;;;;;;;18.55;49.95;101100.63;4890615;29;20057;-85
2022/05/03 07:42:37;;;;;;;7.38;6.60;;;;;;;18.51;50.21;101096.59;4892571;29;20224;-85
2022/05/03 07:45:04;;;;;;;9.73;8.05;;;;;;;18.34;49.98;101051.00;4896325;29;20067;-86
2022/05/03 07:47:31;;;;;;;8.90;6.97;;;;;;;18.66;50.64;101105.59;4896528;29;20265;-86
2022/05/03 07:49:58;;;;;;;7.93;7.13;;;;;;;18.38;50.80;101043.44;4897468;29;20464;-85
2022/05/03 07:52:25;;;;;;;9.32;7.03;;;;;;;18.68;50.46;101078.53;4896570;29;20052;-85
2022/05/03 07:54:51;;;;;;;7.57;6.80;;;;;;;18.78;51.24;101092.59;4897782;29;20411;-85
2022/05/03 07:57:18;;;;;;;8.85;7.95;;;;;;;18.87;50.92;101112.22;4911801;29;20056;-86
2022/05/03 07:59:45;;;;;;;8.32;7.40;;;;;;;18.57;50.81;101063.66;4912075;29;20068;-85
2022/05/03 08:02:12;;;;;;;8.07;7.38;;;;;;;18.26;50.71;100999.97;4904742;29;20068;-86
2022/05/03 08:04:39;;;;;;;7.53;6.65;;;;;;;18.87;50.33;101098.78;4916449;29;20058;-85
2022/05/03 08:07:06;;;;;;;9.02;7.85;;;;;;;19.08;50.54;101111.56;4916642;29;20062;-86
2022/05/03 08:09:36;;;;;;;9.80;7.10;;;;;;;18.92;50.73;101094.53;4917712;29;20052;-84
2022/05/03 08:12:04;;;;;;;9.00;7.70;;;;;;;18.85;50.61;101081.97;4914949;29;20123;-84
2022/05/03 08:14:32;;;;;;;11.45;8.15;;;;;;;18.47;50.42;101010.09;4914991;29;20358;-84
2022/05/03 08:17:01;;;;;;;11.20;8.35;;;;;;;19.11;50.46;101105.84;4915975;29;20159;-85
2022/05/03 08:19:28;;;;;;;11.35;7.60;;;;;;;19.15;50.48;101099.91;4899433;29;20056;-85
2022/05/03 08:21:56;;;;;;;11.25;8.57;;;;;;;19.34;49.91;101119.25;4914748;29;20058;-86
2022/05/03 08:24:24;;;;;;;14.32;8.23;;;;;;;18.93;49.97;101053.16;4899185;29;20458;-86
2022/05/03 08:26:51;;;;;;;10.05;8.38;;;;;;;19.09;49.98;101067.50;4899444;29;20540;-85
2022/05/03 08:29:19;;;;;;;12.80;8.48;;;;;;;19.39;49.94;101101.56;4916872;29;20055;-84
2022/05/03 08:31:46;;;;;;;9.15;8.23;;;;;;;19.42;49.66;101074.25;4904558;29;20502;-84
2022/05/03 08:34:13;;;;;;;11.68;8.57;;;;;;;19.69;49.84;101122.34;4898859;29;20458;-83
2022/05/03 08:36:40;;;;;;;11.05;9.45;;;;;;;19.73;49.61;101129.84;4899022;29;20063;-85
2022/05/03 08:42:06;;;;;;;15.57;9.90;;;;;;;19.31;49.27;101050.47;4915629;29;20067;-84
2022/05/03 08:44:34;;;;;;;10.52;9.32;;;;;;;19.74;49.43;101126.16;4898991;29;20455;-85
2022/05/03 08:47:05;;;;;;;10.40;9.40;;;;;;;19.95;49.02;101124.59;4915797;29;20060;-86
2022/05/03 08:49:38;;;;;;;10.02;8.93;;;;;;;20.01;48.66;101126.56;4915295;29;20048;-85
2022/05/03 08:52:08;;;;;;;8.88;7.97;;;;;;;19.95;49.14;101103.03;4914948;29;20157;-85
2022/05/03 08:54:37;;;;;;;9.48;8.50;;;;;;;20.12;48.77;101128.75;4897608;29;20056;-86
2022/05/03 08:57:08;;;;;;;9.73;8.82;;;;;;;20.05;47.89;101117.09;4895958;29;20406;-85
2022/05/03 08:59:37;;;;;;;12.07;8.60;;;;;;;20.11;48.74;101110.94;4911509;29;20503;-85
2022/05/03 09:02:04;;;;;;;10.02;8.43;;;;;;;19.75;48.19;101030.84;4908821;29;20064;-84
2022/05/03 09:04:31;;;;;;;9.68;8.77;;;;;;;20.47;48.12;101121.75;4908525;29;20463;-84
2022/05/03 09:07:19;;;;;;;10.15;9.10;;;;;;;20.26;47.32;101044.34;4893621;29;20076;-85
2022/05/03 09:09:47;;;;;;;9.98;8.63;;;;;;;19.77;48.18;100980.31;4894674;29;20277;-87
2022/05/03 09:12:25;;;;;;;11.82;7.97;;;;;;;19.83;48.58;100971.50;4893494;29;20052;-86
2022/05/03 09:14:54;;;;;;;11.88;9.40;;;;;;;20.81;48.33;101124.88;4894193;29;20052;-86
2022/05/03 09:17:40;;;;;;;10.13;9.10;;;;;;;20.43;47.39;101022.56;4894568;29;20056;-84
2022/05/03 09:26:09;;;;;;;12.30;10.18;;;;;;;20.89;47.40;101071.59;4880220;29;20056;-86
2022/05/03 09:28:44;;;;;;;13.82;9.95;;;;;;;21.20;47.55;101110.13;4894434;29;20049;-86
2022/05/03 09:31:11;;;;;;;10.13;9.13;;;;;;;21.08;47.79;101080.94;4882644;29;20554;-87
2022/05/03 09:33:38;;;;;;;10.93;9.82;;;;;;;21.15;47.23;101082.88;4892317;29;20060;-85
2022/05/03 09:36:10;;;;;;;11.70;8.80;;;;;;;21.52;46.29;101117.69;4893015;29;20052;-84
2022/05/03 09:38:56;;;;;;;9.95;9.05;;;;;;;21.70;45.23;101105.53;4894543;29;20193;-86
2022/05/03 09:41:23;;;;;;;8.32;7.57;;;;;;;22.08;44.10;101122.19;4895730;29;20053;-86
2022/05/03 09:44:08;;;;;;;8.23;7.53;;;;;;;22.23;43.06;101111.28;4896257;29;20052;-86
2022/05/03 09:46:52;;;;;;;8.95;8.07;;;;;;;22.14;44.13;101107.06;4899608;29;20049;-84
2022/05/03 09:49:32;;;;;;;8.23;7.32;;;;;;;22.26;43.67;101119.00;4915047;29;20087;-84
2022/05/03 09:51:59;;;;;;;8.73;7.72;;;;;;;21.85;43.90;101041.41;4891749;29;20045;-85
2022/05/03 09:54:26;;;;;;;7.70;6.80;;;;;;;22.26;43.39;101115.44;4894368;29;20426;-85
2022/05/03 09:56:54;;;;;;;8.00;7.30;;;;;;;22.39;42.90;101110.09;4890100;29;20499;-85
2022/05/03 09:59:21;;;;;;;12.05;7.57;;;;;;;22.46;43.58;101069.56;4890300;29;20542;-86
2022/05/03 10:01:48;;;;;;;8.77;7.95;;;;;;;22.90;42.82;101123.16;4888536;29;20068;-85
2022/05/03 10:04:15;;;;;;;9.38;8.50;;;;;;;22.83;42.80;101117.72;4887442;29;20128;-85
2022/05/03 10:06:42;;;;;;;7.78;7.07;;;;;;;22.18;42.98;101016.38;4889687;29;20452;-84
2022/05/03 10:09:10;;;;;;;9.55;7.25;;;;;;;23.03;42.32;101108.84;4906916;29;20434;-84
2022/05/03 10:11:40;;;;;;;9.02;8.18;;;;;;;22.97;41.77;101109.66;4891511;29;20060;-84
2022/05/03 10:14:07;;;;;;;9.52;8.65;;;;;;;23.12;41.07;101113.03;4892670;29;20059;-84
2022/05/03 10:22:07;;;;;;;12.32;6.70;;;;;;;23.38;39.70;101076.16;4894067;29;20482;-86
2022/05/03 10:24:52;;;;;;;6.00;5.43;;;;;;;23.50;40.04;101046.53;4889448;29;20064;-84
2022/05/03 10:27:24;;;;;;;8.55;6.28;;;;;;;23.95;39.05;101065.66;4889229;29;20049;-84
2022/05/03 10:30:19;;;;;;;7.50;6.22;;;;;;;24.29;38.84;101099.75;4906039;29;20052;-86
2022/05/03 10:33:20;;;;;;;7.65;6.95;;;;;;;24.01;38.27;101068.34;4889363;29;20484;-85
2022/05/03 10:35:48;;;;;;;6.35;5.65;;;;;;;23.99;39.16;101061.47;4904741;29;20068;-83
2022/05/03 10:38:15;;;;;;;5.07;4.65;;;;;;;24.01;37.71;101033.09;4890997;29;20053;-84
2022/05/03 10:40:43;;;;;;;6.72;4.97;;;;;;;24.03;37.40;101031.00;4889408;29;20056;-85
2022/05/03 10:43:14;;;;;;;7.10;5.15;;;;;;;24.52;38.02;101083.81;4904488;29;20087;-85
2022/05/03 10:45:55;;;;;;;5.72;5.22;;;;;;;24.55;37.14;101062.72;4904566;29;20065;-83
2022/05/03 10:48:26;;;;;;;7.22;5.85;;;;;;;24.90;36.34;101074.81;4904914;29;20063;-85
2022/05/03 10:50:56;;;;;;;5.45;4.95;;;;;;;24.89;37.24;101051.41;4905116;29;20612;-84
2022/05/03 10:53:24;;;;;;;6.22;5.63;;;;;;;24.84;36.46;101040.38;4904799;29;20052;-84
2022/05/03 10:56:12;;;;;;;5.75;5.25;;;;;;;25.14;35.47;101064.16;4905905;29;20414;-84
2022/05/03 10:58:41;;;;;;;5.57;4.60;;;;;;;25.32;36.41;101066.16;4901516;29;20056;-85
2022/05/03 11:01:21;;;;;;;6.28;5.40;;;;;;;25.53;35.52;101067.59;4889983;29;20139;-85
2022/05/03 11:03:48;;;;;;;5.60;5.10;;;;;;;25.34;34.91;101009.66;4906484;29;20388;-84
2022/05/03 11:06:18;;;;;;;6.13;5.03;;;;;;;25.74;35.39;101066.34;4906667;29;20045;-86
2022/05/03 11:09:04;;;;;;;5.85;4.47;;;;;;;25.73;34.82;101068.25;4906478;29;20072;-85
2022/05/03 11:11:53;;;;;;;6.10;5.43;;;;;;;25.83;34.95;101061.44;4891137;29;20131;-85
2022/05/03 11:14:22;;;;;;;9.15;4.85;;;;;;;25.95;34.84;101063.22;4891145;29;20219;-84
2022/05/03 11:16:51;;;;;;;9.55;6.25;;;;;;;26.04;35.18;101063.72;4906238;29;20075;-85
2022/05/03 11:19:19;;;;;;;6.35;5.28;;;;;;;25.57;34.95;100979.13;4889764;29;20052;-84
2022/05/03 11:21:48;;;;;;;5.70;5.10;;;;;;;26.04;34.78;101052.84;4889916;29;20069;-85
2022/05/03 11:24:19;;;;;;;5.70;5.05;;;;;;;25.37;34.18;100941.31;4890915;29;20045;-85
2022/05/03 11:26:47;;;;;;;7.65;4.90;;;;;;;25.99;35.01;101053.53;4890555;29;20049;-84
2022/05/03 11:29:14;;;;;;;6.05;5.45;;;;;;;26.13;34.63;101051.47;4905417;29;20045;-85
2022/05/03 11:31:49;;;;;;;4.90;4.50;;;;;;;25.74;34.40;100995.66;4889414;29;20339;-84
2022/05/03 11:34:18;;;;;;;5.93;4.93;;;;;;;24.84;34.12;100825.88;4892178;29;20518;-86
2022/05/03 11:36:47;;;;;;;6.38;5.63;;;;;;;25.98;34.80;100991.22;4891784;29;20418;-86
2022/05/03 11:39:14;;;;;;;5.75;5.20;;;;;;;26.39;34.01;101046.75;4906728;29;20057;-84
2022/05/03 11:41:44;;;;;;;7.22;4.93;;;;;;;26.42;33.71;101019.91;4890621;29;20463;-85
2022/05/03 11:44:12;;;;;;;5.00;4.50;;;;;;;26.66;33.15;101032.78;4905797;29;20392;-84
2022/05/03 11:46:40;;;;;;;4.90;4.28;;;;;;;26.56;31.88;100985.19;4890293;29;20374;-86
2022/05/03 11:49:10;;;;;;;5.40;4.97;;;;;;;27.06;31.85;101032.97;4892369;29;20056;-84
2022/05/03 11:57:23;;;;;;;4.13;3.55;;;;;;;27.23;32.04;101049.47;4891830;29;20126;-84
2022/05/03 11:59:55;;;;;;;4.32;3.92;;;;;;;27.24;30.51;101007.56;4891326;29;20052;-84
2022/05/03 12:02:28;;;;;;;5.10;4.38;;;;;;;27.68;31.08;101046.97;4912187;29;20197;-86
2022/05/03 12:05:25;;;;;;;5.27;4.77;;;;;;;27.80;30.83;101049.69;4910477;29;20483;-85
2022/05/03 12:07:54;;;;;;;5.15;4.70;;;;;;;27.82;31.29;101031.22;4907509;29;20064;-85
2022/05/03 12:10:37;;;;;;;4.63;4.15;;;;;;;28.03;31.63;101021.53;4889841;29;20053;-85
2022/05/03 12:13:05;;;;;;;5.40;4.85;;;;;;;28.22;31.14;101035.84;4890788;29;20452;-84
2022/05/03 12:15:42;;;;;;;6.35;4.25;;;;;;;27.68;30.79;100915.25;4905253;29;20049;-85